Overview Statistics Trail Chart Weather Telemetry Raw packets
 

This is the latest recevied telemetry packets stored in our database for station/object DK1OM-2. If no packets are shown the sender has not sent any telemetry packets the latest 10 day(s).

Telemetry packets is used to share measurements like repeteater parameters, battery voltage, radiation readings (or any other measurements).

<< 1 2 3 4 >>
Time Press* Temp.in* Hum* QNH* Temp.out*
1788664455 1020.1 hPa 22.5 C deg 55.5 % 1027.5 hPa 22.9 C deg
1788662625 1020.2 hPa 22.6 C deg 55.4 % 1027.6 hPa 23 C deg
1788660796 1020 hPa 22.7 C deg 55.5 % 1027.4 hPa 23 C deg
1788658964 1019.8 hPa 22.7 C deg 55.8 % 1027.1 hPa 23.1 C deg
1788657134 1019.5 hPa 23 C deg 55.7 % 1026.8 hPa 23.2 C deg
1788655305 1019.3 hPa 22.9 C deg 56.1 % 1026.6 hPa 23.2 C deg
1788653475 1019.1 hPa 22.9 C deg 56 % 1026.4 hPa 23.2 C deg
1788651645 1018.9 hPa 23 C deg 55.8 % 1026.2 hPa 23.3 C deg
1788649816 1018.7 hPa 22.9 C deg 55.9 % 1026 hPa 23.3 C deg
1788647986 1018.5 hPa 23.1 C deg 55.4 % 1025.8 hPa 23.3 C deg
1788646157 1018.5 hPa 23.1 C deg 55.2 % 1025.8 hPa 23.4 C deg
1788644325 1018.2 hPa 23.1 C deg 55.3 % 1025.5 hPa 23.5 C deg
1788642497 1017.9 hPa 23.2 C deg 55.1 % 1025.2 hPa 23.4 C deg
1788640665 1017.8 hPa 23.2 C deg 55.3 % 1025.1 hPa 23.3 C deg
1788638836 1017.5 hPa 22.9 C deg 55.4 % 1024.8 hPa 23.2 C deg
1788637007 1017.5 hPa 23 C deg 55.5 % 1024.8 hPa 23.3 C deg
1788635174 1017.1 hPa 23 C deg 55.5 % 1024.4 hPa 23.3 C deg
1788633344 1016.7 hPa 23 C deg 55.8 % 1023.9 hPa 23.3 C deg
1788629685 1015.7 hPa 23 C deg 53.8 % 1022.9 hPa 23.3 C deg
1788627870 1015.4 hPa 23 C deg 52.2 % 1022.7 hPa 23.3 C deg
1788626023 1014.9 hPa 23.2 C deg 50.9 % 1022.2 hPa 23.6 C deg
1788624222 1014.4 hPa 24 C deg 52.2 % 1021.6 hPa 24 C deg
1788622363 1014.2 hPa 23 C deg 55.8 % 1021.4 hPa 23.2 C deg
1788620533 1014 hPa 23 C deg 55.5 % 1021.3 hPa 23.1 C deg
1788618703 1013.8 hPa 22.9 C deg 55 % 1021 hPa 23.1 C deg
*Used Equation Coefficients:
Press: 0, 1, 0
Temp.in: 0, 1, 0
Hum: 0, 1, 0
QNH: 0, 1, 0
Temp.out: 0, 1, 0

  • The parameter names for the analog channels will be Value1, Value2, Value3 (up to Value5) if station has not sent a PARAM-packet that specifies the parameter names for each analog channel.
  • Each analog value is a decimal number between 000 and 255 (according to APRS specifications). The receiver use the telemetry equation coefficientsto to restore the original sensor values. If no EQNS-packet with equation coefficients is sent we will show the values as is (this corresponds to the equation coefficients a=0, b=1 and c=0).
    The sent equation coefficients is used in the equation: a * value2 + b * value + c.
  • The units for the analog values will not be shown if station has not sent a UNIT-packet specifying what unit's to use.
  • The parameter names for the digital bits will be Bit1, Bit2, Bit3 (up to Bit8) if station has not sent a PARAM-packet that specifies the parameter names for each digital bit.
  • All bit labels will be named "On" if station has not sent a UNIT-packet that specifies the label of each bit.
  • A bit is considered to be On when the bit is 1 if station has not sent a BITS-packet that specifies another "Bit sense" (a BITS-packet specify the state of the bits that match the BIT labels)